Time;durP1;ratioP1;P1;durP2;ratioP2;P2;SDS_P1;SDS_P2;PMS_P1;PMS_P2;Temp;Humidity;BMP_temperature;BMP_pressure;BME280_temperature;BME280_humidity;BME280_pressure;Samples;Min_cycle;Max_cycle;Signal;HPM_P1;HPM_P2
2023/08/23 00:01:17;;;;;;;10.43;3.85;;;;;;;25.03;53.48;100867.03;4046212;29;20037;-65
2023/08/23 00:03:25;;;;;;;11.85;4.70;;;;;;;25.01;53.36;100862.69;4044600;29;20491;-65
2023/08/23 00:05:28;;;;;;;8.65;4.22;;;;;;;24.99;53.60;100865.44;4047862;29;20056;-65
2023/08/23 00:07:31;;;;;;;9.68;4.68;;;;;;;25.00;53.43;100868.94;4047153;29;20065;-65
2023/08/23 00:09:34;;;;;;;12.30;4.90;;;;;;;24.98;53.22;100869.00;4045564;29;20407;-65
2023/08/23 00:11:38;;;;;;;11.20;5.35;;;;;;;25.01;53.23;100873.34;4047213;29;20044;-65
2023/08/23 00:13:41;;;;;;;12.43;4.75;;;;;;;24.92;53.19;100864.78;4062273;29;20454;-65
2023/08/23 00:15:44;;;;;;;7.07;4.65;;;;;;;24.87;53.39;100871.25;4045107;29;20054;-65
2023/08/23 00:17:47;;;;;;;7.13;4.70;;;;;;;24.91;53.25;100867.50;4046792;29;20079;-65
2023/08/23 00:19:49;;;;;;;10.25;5.40;;;;;;;24.69;53.76;100863.06;4043702;29;20040;-65
2023/08/23 00:21:52;;;;;;;9.15;5.13;;;;;;;24.73;53.58;100861.13;4066426;23;20130;-65
2023/08/23 00:23:55;;;;;;;11.63;4.85;;;;;;;24.66;54.05;100862.28;4095982;28;20043;-64
2023/08/23 00:25:58;;;;;;;11.63;4.55;;;;;;;24.60;54.08;100867.84;4090855;28;20050;-62
2023/08/23 00:28:03;;;;;;;9.35;4.82;;;;;;;24.58;54.29;100866.06;4091831;28;20471;-65
2023/08/23 00:30:16;;;;;;;12.10;5.03;;;;;;;24.59;54.24;100866.97;4103981;28;20039;-65
2023/08/23 00:32:19;;;;;;;13.00;5.57;;;;;;;24.52;54.24;100860.13;4110088;28;20042;-65
2023/08/23 00:34:22;;;;;;;11.05;5.05;;;;;;;24.45;54.41;100853.31;4094573;28;20462;-65
2023/08/23 00:36:24;;;;;;;11.15;5.45;;;;;;;24.46;54.59;100858.56;4078801;29;20047;-65
2023/08/23 00:38:27;;;;;;;9.60;5.93;;;;;;;24.51;54.64;100855.72;4079924;29;20557;-65
2023/08/23 00:40:31;;;;;;;8.63;5.07;;;;;;;24.48;54.61;100858.50;4094270;29;20046;-65
2023/08/23 00:42:34;;;;;;;13.13;6.07;;;;;;;24.54;54.35;100859.13;4089589;29;20091;-62
2023/08/23 00:44:38;;;;;;;11.00;6.47;;;;;;;24.45;54.61;100859.47;4095226;28;20129;-62
2023/08/23 00:46:40;;;;;;;15.02;6.20;;;;;;;24.39;54.83;100863.22;4104464;28;20072;-65
2023/08/23 00:48:44;;;;;;;7.63;5.30;;;;;;;24.35;54.67;100864.25;4078496;29;20446;-63
2023/08/23 00:50:48;;;;;;;;;;;;;;;24.34;54.72;100861.66;4079279;29;20574;-65
2023/08/23 00:52:50;;;;;;;10.15;4.30;;;;;;;24.25;55.05;100857.56;4074987;29;19923;-65
2023/08/23 00:54:58;;;;;;;11.07;5.97;;;;;;;24.29;55.18;100866.28;4083478;29;20057;-65
2023/08/23 00:57:02;;;;;;;10.68;5.10;;;;;;;24.27;54.99;100869.00;4079613;29;20039;-65
2023/08/23 00:59:06;;;;;;;11.85;5.78;;;;;;;24.29;55.35;100872.47;4082808;29;20431;-65
2023/08/23 01:01:11;;;;;;;12.35;5.40;;;;;;;24.32;55.15;100868.84;4084661;29;20530;-65
2023/08/23 01:03:14;;;;;;;10.18;4.97;;;;;;;24.19;55.15;100871.94;4079283;29;20032;-65
2023/08/23 01:05:17;;;;;;;9.23;5.72;;;;;;;24.25;55.26;100872.63;4083188;29;20055;-65
2023/08/23 01:07:30;;;;;;;10.30;5.05;;;;;;;24.15;55.39;100874.75;4080340;29;20123;-65
2023/08/23 01:09:42;;;;;;;11.38;5.95;;;;;;;24.25;55.20;100864.66;4082661;29;20043;-65
2023/08/23 01:11:51;;;;;;;13.15;6.35;;;;;;;24.19;55.25;100857.78;4079072;29;20044;-65
2023/08/23 01:14:02;;;;;;;10.52;5.85;;;;;;;24.11;55.48;100855.41;4095405;28;20563;-65
2023/08/23 01:16:09;;;;;;;9.07;5.38;;;;;;;23.99;56.14;100862.03;4076338;29;20075;-65
2023/08/23 01:18:15;;;;;;;13.30;6.15;;;;;;;24.04;55.76;100862.72;4080352;29;20067;-62
2023/08/23 01:20:18;;;;;;;12.70;6.65;;;;;;;24.07;55.63;100863.56;4099193;29;20027;-62
2023/08/23 01:22:23;;;;;;;8.80;5.18;;;;;;;23.99;55.84;100867.34;4098925;28;20043;-65
2023/08/23 01:24:29;;;;;;;11.98;5.93;;;;;;;24.00;56.16;100871.72;4081006;29;20383;-65
2023/08/23 01:26:32;;;;;;;10.45;6.00;;;;;;;23.96;56.09;100867.47;4077167;29;20074;-65
2023/08/23 01:28:34;;;;;;;11.35;5.72;;;;;;;23.85;56.50;100870.44;4099017;29;20432;-62
2023/08/23 01:30:40;;;;;;;10.05;5.90;;;;;;;23.86;56.64;100861.59;4080077;29;20035;-65
2023/08/23 01:32:51;;;;;;;10.30;6.63;;;;;;;23.86;56.39;100860.72;4082046;29;20087;-65
2023/08/23 01:34:59;;;;;;;11.85;6.38;;;;;;;23.84;56.47;100854.56;4082838;29;20098;-64
2023/08/23 01:37:05;;;;;;;9.50;5.97;;;;;;;23.89;56.26;100860.63;4093368;28;20122;-65
2023/08/23 01:39:09;;;;;;;9.55;5.60;;;;;;;23.85;56.45;100854.50;4079475;29;20040;-65
2023/08/23 01:41:14;;;;;;;13.13;5.95;;;;;;;23.84;56.77;100857.22;4080698;29;20455;-65
2023/08/23 01:43:17;;;;;;;9.57;4.72;;;;;;;23.79;56.86;100859.19;4082596;29;20130;-65
2023/08/23 01:45:20;;;;;;;11.13;6.38;;;;;;;23.88;56.60;100856.22;4090038;29;20074;-65
2023/08/23 01:47:23;;;;;;;13.32;6.40;;;;;;;23.85;56.50;100848.34;4095464;28;20039;-63
2023/08/23 01:49:26;;;;;;;9.63;6.28;;;;;;;23.90;56.26;100842.91;4079452;29;20040;-62
2023/08/23 01:51:29;;;;;;;9.75;7.10;;;;;;;23.88;56.29;100846.47;4080306;29;20032;-65
2023/08/23 01:53:32;;;;;;;16.00;6.75;;;;;;;23.82;56.60;100848.44;4095259;29;20082;-65
2023/08/23 01:55:35;;;;;;;12.82;7.07;;;;;;;23.77;56.77;100848.63;4080080;29;20494;-65
2023/08/23 01:57:41;;;;;;;10.73;7.03;;;;;;;23.77;56.71;100855.69;4096149;28;20146;-65
2023/08/23 01:59:45;;;;;;;11.15;6.90;;;;;;;23.67;56.79;100856.00;4096731;28;20070;-65
2023/08/23 02:01:48;;;;;;;15.18;7.40;;;;;;;23.64;57.23;100858.78;4078657;29;20039;-65
2023/08/23 02:03:51;;;;;;;12.07;7.35;;;;;;;23.66;57.24;100875.50;4091643;28;20035;-65
2023/08/23 02:05:55;;;;;;;13.10;7.32;;;;;;;23.61;57.23;100877.47;4080513;29;20051;-65
2023/08/23 02:07:58;;;;;;;12.15;7.85;;;;;;;23.60;57.34;100867.75;4094554;28;20090;-65
2023/08/23 02:10:01;;;;;;;10.27;6.90;;;;;;;23.60;57.20;100874.88;4077933;29;20536;-65
2023/08/23 02:12:05;;;;;;;13.02;6.82;;;;;;;23.58;57.49;100876.69;4082345;29;20123;-65
2023/08/23 02:14:09;;;;;;;16.20;8.30;;;;;;;23.61;57.27;100871.25;4082652;29;20053;-65
2023/08/23 02:16:12;;;;;;;12.75;6.60;;;;;;;23.58;57.25;100858.09;4079031;29;20514;-65
2023/08/23 02:18:15;;;;;;;12.82;7.43;;;;;;;23.58;57.28;100866.91;4096322;28;20613;-65
2023/08/23 02:20:19;;;;;;;12.80;7.05;;;;;;;23.56;56.80;100868.78;4079290;29;20506;-65
2023/08/23 02:22:22;;;;;;;12.43;7.07;;;;;;;23.46;57.31;100872.66;4094650;29;20046;-63
2023/08/23 02:24:25;;;;;;;8.45;5.85;;;;;;;23.46;57.36;100862.03;4076917;29;20480;-65
2023/08/23 02:26:28;;;;;;;14.45;6.03;;;;;;;23.40;57.51;100868.41;4080152;29;20434;-65
2023/08/23 02:28:31;;;;;;;12.35;6.88;;;;;;;23.43;57.58;100864.78;4077877;29;20036;-65
2023/08/23 02:30:35;;;;;;;13.82;6.82;;;;;;;23.45;57.47;100863.84;4097409;29;20341;-65
2023/08/23 02:32:38;;;;;;;7.82;5.30;;;;;;;23.41;57.40;100861.31;4095078;29;20429;-65
2023/08/23 02:34:41;;;;;;;11.68;6.75;;;;;;;23.39;57.62;100860.50;4081461;29;20490;-64
2023/08/23 02:36:44;;;;;;;9.68;6.65;;;;;;;23.43;57.52;100857.69;4076163;29;20035;-64
2023/08/23 02:38:47;;;;;;;10.90;6.00;;;;;;;23.41;57.56;100854.22;4096546;29;20043;-64
2023/08/23 02:40:50;;;;;;;11.68;5.78;;;;;;;23.41;57.63;100858.66;4095914;28;20382;-65
2023/08/23 02:42:55;;;;;;;10.43;5.93;;;;;;;23.47;57.76;100847.84;4077328;29;20040;-65
2023/08/23 02:44:58;;;;;;;14.02;7.65;;;;;;;23.54;57.17;100849.38;4075480;29;20048;-64
2023/08/23 02:47:02;;;;;;;10.48;6.38;;;;;;;23.52;57.28;100853.88;4110729;28;20513;-64
2023/08/23 02:49:05;;;;;;;;;;;;;;;23.54;57.25;100849.38;4078673;29;20126;-65
2023/08/23 02:51:08;;;;;;;12.38;7.18;;;;;;;23.47;57.42;100858.47;4080470;29;20013;-65
2023/08/23 02:53:10;;;;;;;13.57;6.88;;;;;;;23.45;57.56;100853.22;4096594;29;20493;-64
2023/08/23 02:55:13;;;;;;;15.10;7.65;;;;;;;23.47;57.51;100854.03;4077452;29;20615;-64
2023/08/23 02:57:16;;;;;;;10.35;6.05;;;;;;;23.47;57.43;100847.84;4108604;28;20055;-64
2023/08/23 02:59:19;;;;;;;8.80;6.93;;;;;;;23.48;57.51;100844.25;4080419;29;20036;-64
2023/08/23 03:01:22;;;;;;;13.10;8.57;;;;;;;23.51;57.32;100841.53;4093121;28;20529;-65
2023/08/23 03:03:28;;;;;;;10.25;5.93;;;;;;;23.43;57.79;100846.22;4093832;28;20034;-64
2023/08/23 03:05:31;;;;;;;;;;;;;;;23.35;58.38;100843.84;4081549;29;20040;-64
2023/08/23 03:07:34;;;;;;;11.70;6.38;;;;;;;23.41;58.20;100842.72;4080806;29;20365;-64
2023/08/23 03:09:37;;;;;;;12.18;7.30;;;;;;;23.53;58.06;100840.53;4075801;29;20034;-64
2023/08/23 03:11:40;;;;;;;9.45;6.00;;;;;;;23.56;57.58;100847.53;4080809;29;20050;-64
2023/08/23 03:13:43;;;;;;;10.30;6.28;;;;;;;23.58;57.45;100844.84;4110383;28;20049;-64
2023/08/23 03:15:53;;;;;;;12.15;4.93;;;;;;;23.50;58.15;100851.25;4077071;29;20513;-64
2023/08/23 03:17:56;;;;;;;12.68;5.82;;;;;;;23.52;57.99;100851.22;4093233;28;20042;-64
2023/08/23 03:20:01;;;;;;;8.65;5.20;;;;;;;23.55;57.86;100845.78;4095127;28;20054;-64
2023/08/23 03:22:04;;;;;;;11.23;7.78;;;;;;;23.59;57.43;100842.13;4077547;29;20338;-64
2023/08/23 03:24:07;;;;;;;12.68;7.38;;;;;;;23.58;56.99;100847.50;4094593;29;20098;-64
2023/08/23 03:26:10;;;;;;;12.13;8.20;;;;;;;23.55;57.26;100845.78;4094347;28;20047;-64
2023/08/23 03:28:14;;;;;;;11.32;7.03;;;;;;;23.50;57.28;100847.75;4080893;29;20438;-64
2023/08/23 03:30:16;;;;;;;12.02;6.63;;;;;;;23.40;58.10;100846.31;4073738;29;20775;-64
2023/08/23 03:32:20;;;;;;;15.98;8.38;;;;;;;23.50;57.74;100848.59;4080391;29;20035;-64
2023/08/23 03:34:24;;;;;;;12.48;8.45;;;;;;;23.49;57.35;100846.00;4074566;29;20500;-64
2023/08/23 03:36:28;;;;;;;12.43;7.80;;;;;;;23.40;57.78;100843.69;4080362;29;20041;-64
2023/08/23 03:38:31;;;;;;;13.40;7.80;;;;;;;23.34;57.81;100848.25;4108909;28;20041;-64
2023/08/23 03:40:37;;;;;;;9.82;7.05;;;;;;;23.30;57.81;100843.09;4076825;29;20075;-64
2023/08/23 03:42:40;;;;;;;12.13;7.25;;;;;;;23.30;58.08;100846.59;4073952;29;20044;-64
2023/08/23 03:44:43;;;;;;;15.25;8.98;;;;;;;23.30;57.94;100856.38;4080836;29;20134;-64
2023/08/23 03:46:46;;;;;;;12.50;7.53;;;;;;;23.26;58.11;100858.25;4076401;29;20039;-64
2023/08/23 03:48:50;;;;;;;17.40;9.43;;;;;;;23.30;58.09;100857.22;4096352;28;20032;-64
2023/08/23 03:50:53;;;;;;;16.60;10.75;;;;;;;23.25;58.25;100853.88;4081219;29;20061;-64
2023/08/23 03:52:57;;;;;;;15.10;8.50;;;;;;;23.15;58.56;100863.03;4095909;29;20139;-64
2023/08/23 03:55:00;;;;;;;13.43;7.05;;;;;;;23.09;58.59;100863.19;4078322;29;20040;-64
2023/08/23 03:57:03;;;;;;;14.88;9.02;;;;;;;23.10;58.38;100862.25;4094595;28;20098;-64
2023/08/23 03:59:07;;;;;;;16.13;8.95;;;;;;;23.09;58.58;100855.25;4096133;28;20137;-64
2023/08/23 04:01:10;;;;;;;11.82;7.53;;;;;;;23.00;58.94;100853.75;4077499;29;20070;-64
2023/08/23 04:03:13;;;;;;;14.65;8.63;;;;;;;23.00;59.05;100857.25;4096145;29;20039;-64
2023/08/23 04:05:16;;;;;;;14.25;9.65;;;;;;;22.99;58.90;100854.66;4095596;28;20062;-64
2023/08/23 04:07:19;;;;;;;16.90;8.38;;;;;;;22.94;58.95;100853.91;4076345;29;20861;-64
2023/08/23 04:09:23;;;;;;;12.48;8.23;;;;;;;22.90;59.27;100845.22;4093323;28;20481;-49
2023/08/23 04:11:25;;;;;;;11.55;8.50;;;;;;;22.90;59.54;100836.41;4078313;29;20638;-50
2023/08/23 04:13:28;;;;;;;15.07;9.93;;;;;;;22.87;59.63;100836.47;4081745;29;20028;-48
2023/08/23 04:15:31;;;;;;;14.90;8.10;;;;;;;22.81;59.54;100842.84;4094447;28;20161;-52
2023/08/23 04:17:38;;;;;;;13.70;8.88;;;;;;;22.82;59.72;100837.50;4095535;28;20043;-53
2023/08/23 04:19:41;;;;;;;16.52;8.95;;;;;;;22.85;59.72;100839.16;4079841;29;20031;-54
2023/08/23 04:21:46;;;;;;;20.95;10.43;;;;;;;22.89;59.96;100835.50;4078448;29;20035;-51
2023/08/23 04:23:50;;;;;;;16.33;9.30;;;;;;;22.89;59.71;100839.94;4095679;28;20114;-52
2023/08/23 04:25:55;;;;;;;17.52;10.18;;;;;;;22.89;59.58;100843.47;4076178;29;20075;-51
2023/08/23 04:27:58;;;;;;;11.48;8.48;;;;;;;22.88;59.59;100843.50;4097548;28;20043;-51
2023/08/23 04:30:01;;;;;;;16.90;7.60;;;;;;;22.83;59.84;100848.97;4098486;29;20454;-48
2023/08/23 04:32:09;;;;;;;16.33;12.55;;;;;;;22.92;59.38;100847.81;4096655;28;20062;-67
2023/08/23 04:34:14;;;;;;;17.60;10.07;;;;;;;22.75;59.89;100845.66;4107050;28;20047;-67
2023/08/23 04:36:17;;;;;;;15.68;10.82;;;;;;;22.70;59.79;100853.75;4082392;29;20106;-67
2023/08/23 04:38:20;;;;;;;14.77;9.93;;;;;;;22.67;60.08;100854.72;4083357;29;20043;-67
2023/08/23 04:40:22;;;;;;;14.32;9.80;;;;;;;22.69;59.62;100857.31;4079062;29;20553;-67
2023/08/23 04:42:31;;;;;;;13.48;8.63;;;;;;;22.64;59.42;100857.47;4094936;28;20039;-67
2023/08/23 04:44:34;;;;;;;17.70;9.98;;;;;;;22.72;59.26;100859.91;4093266;28;20044;-67
2023/08/23 04:46:37;;;;;;;18.10;10.45;;;;;;;22.64;59.46;100854.81;4082282;29;20031;-67
2023/08/23 04:48:40;;;;;;;13.77;8.93;;;;;;;22.61;59.70;100852.25;4082139;29;20091;-67
2023/08/23 04:50:43;;;;;;;15.48;10.32;;;;;;;22.61;59.86;100852.25;4078915;29;20064;-67
2023/08/23 04:52:46;;;;;;;16.08;9.68;;;;;;;22.55;59.86;100843.63;4098996;29;20067;-67
2023/08/23 04:54:49;;;;;;;14.50;9.90;;;;;;;22.56;59.87;100848.88;4082737;29;20047;-66
2023/08/23 04:56:52;;;;;;;13.27;9.30;;;;;;;22.49;59.97;100857.94;4080559;29;20135;-67
2023/08/23 04:58:57;;;;;;;15.88;9.88;;;;;;;22.48;60.31;100856.19;4083874;29;20509;-67
2023/08/23 05:01:03;;;;;;;13.52;8.60;;;;;;;22.47;60.30;100860.63;4082399;29;20099;-67
2023/08/23 05:03:07;;;;;;;16.02;11.25;;;;;;;22.54;60.49;100861.28;4078057;29;20597;-67
2023/08/23 05:05:13;;;;;;;19.50;11.15;;;;;;;22.53;60.54;100856.03;4097064;29;20547;-67
2023/08/23 05:07:17;;;;;;;15.10;10.35;;;;;;;22.47;60.59;100855.31;4078226;29;20046;-67
2023/08/23 05:09:20;;;;;;;16.60;11.13;;;;;;;22.44;60.82;100857.19;4095560;29;20497;-67
2023/08/23 05:11:23;;;;;;;17.00;9.77;;;;;;;22.46;60.71;100847.41;4082490;29;20049;-67
2023/08/23 05:13:27;;;;;;;19.30;11.52;;;;;;;22.47;60.91;100849.13;4079657;29;20040;-67
2023/08/23 05:15:31;;;;;;;18.27;11.13;;;;;;;22.51;60.96;100849.94;4099064;29;20039;-67
2023/08/23 05:17:34;;;;;;;;;;;;;;;22.44;61.14;100842.16;4079113;29;20430;-67
2023/08/23 05:19:40;;;;;;;14.20;10.00;;;;;;;22.52;61.23;100849.03;4080961;29;19927;-67
2023/08/23 05:21:44;;;;;;;16.52;11.25;;;;;;;22.47;61.36;100849.13;4094494;28;20086;-67
2023/08/23 05:23:47;;;;;;;16.90;11.00;;;;;;;22.49;61.25;100852.63;4095592;28;20086;-67
2023/08/23 05:25:50;;;;;;;20.10;12.73;;;;;;;22.54;61.16;100853.34;4080572;29;20134;-67
2023/08/23 05:27:53;;;;;;;15.80;11.10;;;;;;;22.53;61.06;100859.59;4093113;29;20565;-67
2023/08/23 05:29:59;;;;;;;19.35;11.52;;;;;;;22.54;61.44;100860.44;4080441;29;20042;-67
2023/08/23 05:32:04;;;;;;;23.00;12.02;;;;;;;22.59;61.23;100863.81;4096702;28;20082;-67
2023/08/23 05:34:07;;;;;;;28.17;13.93;;;;;;;22.59;60.88;100855.84;4083298;29;20087;-67
2023/08/23 05:36:09;;;;;;;21.73;11.00;;;;;;;22.47;61.34;100862.38;4098685;29;20481;-67
2023/08/23 05:38:12;;;;;;;20.08;10.45;;;;;;;22.50;61.32;100859.63;4081439;29;20043;-68
2023/08/23 05:40:15;;;;;;;20.67;12.48;;;;;;;22.55;61.20;100868.34;4097526;29;20525;-68
2023/08/23 05:42:19;;;;;;;16.20;10.82;;;;;;;22.53;61.38;100869.28;4089844;28;20122;-68
2023/08/23 05:44:22;;;;;;;15.37;9.77;;;;;;;22.52;61.58;100872.88;4097558;28;20046;-68
2023/08/23 05:46:25;;;;;;;25.35;12.00;;;;;;;22.62;60.97;100869.91;4078733;29;20292;-67
2023/08/23 05:48:29;;;;;;;18.65;11.27;;;;;;;22.64;61.39;100876.00;4059670;29;20044;-67
2023/08/23 05:50:32;;;;;;;;;;;;;;;22.62;60.74;100869.91;4083254;29;20458;-68
2023/08/23 05:52:35;;;;;;;25.65;12.52;;;;;;;22.66;60.80;100873.31;4081937;29;20448;-67
2023/08/23 05:54:37;;;;;;;28.77;11.55;;;;;;;22.73;60.72;100876.66;4105181;28;20043;-68
2023/08/23 05:56:40;;;;;;;16.90;10.73;;;;;;;22.70;60.77;100871.47;4076636;29;20050;-68
2023/08/23 05:58:43;;;;;;;21.08;10.27;;;;;;;22.80;60.81;100873.78;4096789;29;20035;-68
2023/08/23 06:00:47;;;;;;;20.58;10.88;;;;;;;22.82;60.51;100871.97;4076438;29;20043;-67
2023/08/23 06:02:50;;;;;;;27.05;12.35;;;;;;;22.86;60.02;100870.06;4096453;28;20609;-67
2023/08/23 06:04:55;;;;;;;22.23;12.25;;;;;;;22.80;60.38;100878.22;4095626;28;20501;-67
2023/08/23 06:06:58;;;;;;;26.67;12.30;;;;;;;22.81;60.20;100883.47;4079722;29;20435;-68
2023/08/23 06:09:01;;;;;;;24.75;12.45;;;;;;;22.81;60.40;100880.81;4081852;29;20047;-66
2023/08/23 06:11:04;;;;;;;31.73;15.07;;;;;;;22.86;59.80;100872.72;4076891;29;20072;-66
2023/08/23 06:13:07;;;;;;;27.88;13.30;;;;;;;22.82;59.97;100882.56;4083043;29;20059;-67
2023/08/23 06:15:10;;;;;;;33.55;13.73;;;;;;;22.79;60.32;100887.06;4076446;29;20032;-67
2023/08/23 06:17:13;;;;;;;29.38;12.40;;;;;;;22.85;60.31;100886.88;4074793;29;20046;-67
2023/08/23 06:19:16;;;;;;;25.35;12.35;;;;;;;22.87;60.15;100886.84;4079070;29;20068;-67
2023/08/23 06:21:20;;;;;;;26.98;12.82;;;;;;;22.93;59.95;100881.38;4079798;29;20040;-67
2023/08/23 06:23:24;;;;;;;31.63;13.82;;;;;;;22.99;59.62;100887.34;4133676;23;20073;-62
2023/08/23 06:25:27;;;;;;;32.75;13.55;;;;;;;22.98;59.97;100888.28;4098545;28;20039;-63
2023/08/23 06:27:30;;;;;;;36.35;13.88;;;;;;;23.04;59.88;100892.50;4095221;28;20043;-63
2023/08/23 06:29:33;;;;;;;39.60;17.35;;;;;;;23.17;59.01;100896.56;4098622;28;20115;-63
2023/08/23 06:31:36;;;;;;;37.58;17.35;;;;;;;23.12;59.35;100892.31;4128438;28;20089;-63
2023/08/23 06:33:39;;;;;;;52.95;21.17;;;;;;;23.08;59.51;100894.13;4110855;28;20488;-63
2023/08/23 06:35:42;;;;;;;50.65;20.02;;;;;;;23.18;59.25;100889.47;4099110;28;20082;-63
2023/08/23 06:37:46;;;;;;;40.80;15.80;;;;;;;23.17;59.43;100887.72;4089125;28;20047;-63
2023/08/23 06:39:49;;;;;;;31.92;13.20;;;;;;;23.11;59.81;100896.72;4098304;28;20043;-63
2023/08/23 06:41:53;;;;;;;29.15;11.98;;;;;;;23.13;59.57;100896.69;4098390;28;20493;-63
2023/08/23 06:44:00;;;;;;;23.02;12.15;;;;;;;23.17;59.83;100898.31;4096077;28;20035;-63
2023/08/23 06:46:02;;;;;;;28.45;12.38;;;;;;;23.18;59.49;100894.75;4097537;28;20051;-63
2023/08/23 06:48:06;;;;;;;27.70;10.95;;;;;;;23.17;59.37;100899.22;4098223;28;20106;-63
2023/08/23 06:50:10;;;;;;;25.77;11.25;;;;;;;23.17;59.98;100899.22;4096693;28;20082;-63
2023/08/23 06:52:18;;;;;;;19.45;9.45;;;;;;;23.35;58.91;100905.72;4097006;28;20043;-64
2023/08/23 06:54:22;;;;;;;18.10;9.20;;;;;;;23.31;58.99;100898.75;4096350;28;20054;-63
2023/08/23 06:56:25;;;;;;;20.48;9.75;;;;;;;23.35;58.80;100902.19;4097479;28;20067;-62
2023/08/23 06:58:28;;;;;;;21.88;9.85;;;;;;;23.43;58.05;100900.16;4098655;28;20036;-63
2023/08/23 07:00:31;;;;;;;16.55;9.27;;;;;;;23.35;58.26;100887.13;4098538;28;20134;-63
2023/08/23 07:02:34;;;;;;;12.55;8.35;;;;;;;23.33;58.38;100904.00;4096273;28;20062;-63
2023/08/23 07:04:37;;;;;;;11.52;7.78;;;;;;;23.29;58.72;100897.97;4097093;28;20592;-62
2023/08/23 07:06:40;;;;;;;22.13;9.38;;;;;;;23.41;58.31;100898.47;4088658;28;20047;-63
2023/08/23 07:08:44;;;;;;;22.75;9.35;;;;;;;23.37;58.66;100894.19;4093086;28;20082;-62
2023/08/23 07:10:48;;;;;;;19.60;8.30;;;;;;;23.40;58.66;100888.78;4096277;28;20472;-63
2023/08/23 07:12:51;;;;;;;15.25;7.43;;;;;;;23.45;58.40;100892.13;4096627;28;20134;-62
2023/08/23 07:14:54;;;;;;;17.40;8.70;;;;;;;23.61;57.93;100904.00;4096723;28;20417;-63
2023/08/23 07:16:57;;;;;;;19.35;8.15;;;;;;;23.62;58.05;100902.22;4095465;28;20050;-62
2023/08/23 07:19:01;;;;;;;23.50;8.45;;;;;;;23.63;57.98;100902.16;4096813;28;20077;-63
2023/08/23 07:21:04;;;;;;;;;;;;;;;23.75;57.75;100902.69;4095316;28;20126;-62
2023/08/23 07:23:07;;;;;;;24.23;9.85;;;;;;;23.78;57.39;100906.06;4096467;28;20408;-63
2023/08/23 07:25:10;;;;;;;22.42;9.73;;;;;;;23.69;57.78;100911.72;4095930;28;20051;-62
2023/08/23 07:27:14;;;;;;;17.77;8.73;;;;;;;23.68;58.20;100912.63;4096227;28;20797;-62
2023/08/23 07:29:16;;;;;;;17.00;8.30;;;;;;;23.84;57.82;100907.66;4080970;29;20118;-62
2023/08/23 07:31:19;;;;;;;21.70;8.45;;;;;;;23.74;57.93;100916.84;4093405;28;20577;-63
2023/08/23 07:33:22;;;;;;;19.92;9.05;;;;;;;23.83;57.92;100913.88;4094276;28;20042;-63
2023/08/23 07:35:25;;;;;;;23.00;8.23;;;;;;;23.85;58.09;100906.75;4097714;28;20405;-63
2023/08/23 07:37:28;;;;;;;15.23;7.90;;;;;;;23.99;57.73;100904.53;4097101;28;20418;-62
2023/08/23 07:39:31;;;;;;;27.35;9.50;;;;;;;24.18;57.17;100909.16;4081114;29;20082;-63
2023/08/23 07:41:34;;;;;;;24.95;9.82;;;;;;;24.28;56.83;100913.22;4098030;28;20577;-63
2023/08/23 07:43:39;;;;;;;15.88;7.57;;;;;;;24.11;57.54;100912.97;4096424;28;20043;-62
2023/08/23 07:45:42;;;;;;;23.02;8.60;;;;;;;24.26;57.43;100914.25;4095805;28;20086;-63
2023/08/23 07:47:45;;;;;;;13.05;6.93;;;;;;;24.19;57.51;100913.56;4093212;28;20094;-63
2023/08/23 07:49:49;;;;;;;14.43;7.95;;;;;;;24.24;57.35;100919.59;4094636;28;20125;-63
2023/08/23 07:51:52;;;;;;;18.42;8.65;;;;;;;24.34;57.14;100917.47;4097036;28;20058;-63
2023/08/23 07:53:55;;;;;;;19.15;8.10;;;;;;;24.47;56.99;100916.09;4095044;28;20069;-63
2023/08/23 07:55:57;;;;;;;14.00;7.22;;;;;;;24.45;56.87;100914.44;4092301;28;20036;-63
2023/08/23 07:58:00;;;;;;;15.45;7.65;;;;;;;24.44;56.99;100915.34;4096928;28;20035;-63
2023/08/23 08:00:06;;;;;;;20.95;8.73;;;;;;;24.50;56.53;100909.81;4097866;28;20067;-63
2023/08/23 08:02:11;;;;;;;20.67;7.80;;;;;;;24.49;56.86;100916.06;4093786;28;20075;-63
2023/08/23 08:04:14;;;;;;;10.52;5.93;;;;;;;24.54;57.12;100925.59;4097349;28;20066;-63
2023/08/23 08:06:17;;;;;;;20.27;8.55;;;;;;;24.80;55.85;100923.78;4096051;28;20039;-63
2023/08/23 08:08:19;;;;;;;17.48;7.50;;;;;;;24.87;55.80;100924.44;4095921;28;20122;-63
2023/08/23 08:10:22;;;;;;;23.58;8.98;;;;;;;24.96;55.94;100926.72;4097850;28;20043;-62
2023/08/23 08:12:24;;;;;;;14.27;7.80;;;;;;;24.87;55.66;100916.47;4096523;28;20122;-63
2023/08/23 08:14:27;;;;;;;16.65;6.97;;;;;;;24.98;55.88;100914.22;4096758;28;20039;-63
2023/08/23 08:16:31;;;;;;;14.35;7.10;;;;;;;25.21;54.79;100913.31;4095517;28;20444;-62
2023/08/23 08:18:34;;;;;;;;;;;;;;;25.06;55.37;100912.16;4096609;28;20062;-62
2023/08/23 08:20:37;;;;;;;16.30;6.50;;;;;;;25.00;55.58;100920.38;4094165;28;19930;-62
2023/08/23 08:22:40;;;;;;;12.77;5.97;;;;;;;24.98;55.77;100927.53;4080211;29;20198;-62
2023/08/23 08:24:42;;;;;;;14.07;6.72;;;;;;;25.14;55.29;100932.25;4093117;29;20043;-63
2023/08/23 08:26:45;;;;;;;18.70;7.03;;;;;;;25.23;54.84;100924.78;4097154;28;20035;-63
2023/08/23 08:28:48;;;;;;;13.55;6.63;;;;;;;25.26;54.78;100926.44;4096494;28;20126;-63
2023/08/23 08:30:51;;;;;;;12.75;6.35;;;;;;;25.30;54.57;100927.22;4097286;28;20114;-63
2023/08/23 08:32:55;;;;;;;13.75;5.00;;;;;;;25.22;55.19;100927.53;4096668;28;20035;-63
2023/08/23 08:34:58;;;;;;;16.77;6.13;;;;;;;25.35;55.20;100920.81;4109482;28;20041;-63
2023/08/23 08:37:01;;;;;;;11.20;5.18;;;;;;;25.42;54.78;100919.63;4095790;28;20126;-63
2023/08/23 08:39:04;;;;;;;13.02;6.00;;;;;;;25.54;54.38;100917.38;4097135;28;20039;-63
2023/08/23 08:41:08;;;;;;;14.05;5.28;;;;;;;25.53;53.95;100915.66;4096997;28;20134;-63
2023/08/23 08:43:11;;;;;;;14.25;5.45;;;;;;;25.72;53.68;100913.97;4091129;28;20047;-64
2023/08/23 08:45:14;;;;;;;18.65;5.93;;;;;;;25.66;53.46;100911.56;4097044;28;20078;-63
2023/08/23 08:47:17;;;;;;;15.93;5.93;;;;;;;25.80;53.21;100910.97;4095278;28;20051;-63
2023/08/23 08:49:21;;;;;;;14.60;5.68;;;;;;;25.83;52.91;100917.97;4097263;28;20122;-63
2023/08/23 08:51:25;;;;;;;13.85;5.65;;;;;;;25.89;52.93;100920.38;4094383;28;20047;-63
2023/08/23 08:53:30;;;;;;;7.20;4.10;;;;;;;25.86;52.91;100909.84;4096972;28;20039;-63
2023/08/23 08:55:33;;;;;;;11.40;4.78;;;;;;;25.95;52.91;100920.97;4095585;28;20122;-63
2023/08/23 08:57:37;;;;;;;12.15;4.78;;;;;;;26.09;52.77;100916.88;4102012;28;20042;-63
2023/08/23 08:59:40;;;;;;;17.00;6.63;;;;;;;26.34;51.32;100922.00;4094428;28;20039;-63
2023/08/23 09:01:45;;;;;;;10.68;5.20;;;;;;;26.34;51.01;100927.31;4096328;28;20410;-63
2023/08/23 09:03:49;;;;;;;10.75;4.45;;;;;;;26.20;51.69;100929.75;4096987;28;20035;-63
2023/08/23 09:05:57;;;;;;;14.60;5.10;;;;;;;26.24;51.66;100926.00;4095856;28;20063;-63
2023/08/23 09:08:00;;;;;;;10.60;4.38;;;;;;;26.32;51.46;100923.88;4093098;28;20035;-63
2023/08/23 09:10:04;;;;;;;19.30;7.45;;;;;;;26.71;49.12;100919.50;4086232;29;20051;-63
2023/08/23 09:12:08;;;;;;;11.05;4.93;;;;;;;26.64;49.60;100927.75;4093347;28;20043;-63
2023/08/23 09:14:14;;;;;;;15.93;6.00;;;;;;;26.45;50.19;100930.38;4096546;28;20054;-63
2023/08/23 09:16:17;;;;;;;14.57;5.80;;;;;;;26.48;50.16;100914.25;4098604;28;20134;-63
2023/08/23 09:18:20;;;;;;;24.00;6.32;;;;;;;26.77;49.92;100919.22;4098741;28;20134;-63
2023/08/23 09:20:23;;;;;;;15.80;6.20;;;;;;;26.60;50.72;100912.81;4098869;28;20063;-63
2023/08/23 09:22:28;;;;;;;19.97;5.57;;;;;;;26.56;50.81;100910.38;4099597;28;20040;-63
2023/08/23 09:24:30;;;;;;;;;;;;;;;26.87;49.20;100909.88;4097158;28;20042;-63
2023/08/23 09:26:33;;;;;;;18.88;6.82;;;;;;;26.71;50.15;100904.38;4099326;28;19933;-63
2023/08/23 09:28:36;;;;;;;15.48;5.10;;;;;;;26.67;50.72;100902.75;4097755;28;20477;-63
2023/08/23 09:30:39;;;;;;;11.32;5.07;;;;;;;26.88;50.65;100894.72;4099683;28;20039;-63